Time;durP1;ratioP1;P1;durP2;ratioP2;P2;SDS_P1;SDS_P2;PMS_P1;PMS_P2;Temp;Humidity;BMP_temperature;BMP_pressure;BME280_temperature;BME280_humidity;BME280_pressure;Samples;Min_cycle;Max_cycle;Signal;HPM_P1;HPM_P2
2024/04/03 00:00:52;;;;;;;6.68;2.83;;;8.90;99.90;;;;;;4978567;28;20086;-78
2024/04/03 00:03:18;;;;;;;10.23;4.30;;;8.80;99.90;;;;;;4978669;28;20038;-78
2024/04/03 00:05:45;;;;;;;6.75;3.50;;;8.80;99.90;;;;;;4994701;28;20089;-77
2024/04/03 00:08:11;;;;;;;8.43;4.15;;;8.70;99.90;;;;;;4978316;28;20463;-78
2024/04/03 00:10:37;;;;;;;5.25;3.85;;;8.60;99.90;;;;;;4978330;28;20097;-78
2024/04/03 00:13:03;;;;;;;8.80;4.25;;;8.60;99.90;;;;;;4978287;28;20488;-77
2024/04/03 00:15:30;;;;;;;13.68;4.38;;;8.60;99.90;;;;;;4993396;28;20452;-78
2024/04/03 00:17:56;;;;;;;5.45;2.75;;;8.70;99.90;;;;;;4978053;28;20050;-78
2024/04/03 00:20:23;;;;;;;4.47;2.45;;;8.80;99.90;;;;;;4978068;28;20485;-78
2024/04/03 00:22:50;;;;;;;6.55;4.78;;;8.80;99.90;;;;;;4977869;28;20051;-77
2024/04/03 00:25:17;;;;;;;9.52;3.58;;;8.90;99.90;;;;;;4994277;28;20388;-78
2024/04/03 00:27:44;;;;;;;12.95;4.38;;;9.00;99.90;;;;;;4977842;28;20046;-78
2024/04/03 00:30:10;;;;;;;8.48;3.70;;;9.00;99.90;;;;;;4978068;28;20046;-78
2024/04/03 00:32:37;;;;;;;13.95;5.78;;;9.10;99.90;;;;;;4993815;28;20034;-78
2024/04/03 00:35:03;;;;;;;10.55;4.30;;;9.10;99.90;;;;;;4978091;28;20652;-78
2024/04/03 00:37:33;;;;;;;5.68;4.53;;;9.20;99.90;;;;;;4993963;28;20062;-77
2024/04/03 00:39:59;;;;;;;;;;;9.20;99.90;;;;;;4978168;28;20047;-78
2024/04/03 00:42:25;;;;;;;9.35;3.97;;;9.30;99.90;;;;;;4977807;28;19948;-78
2024/04/03 00:44:51;;;;;;;8.32;3.90;;;9.30;99.90;;;;;;4977677;28;20120;-78
2024/04/03 00:47:18;;;;;;;7.18;3.38;;;9.30;99.90;;;;;;4977687;28;20050;-78
2024/04/03 00:49:47;;;;;;;6.45;4.13;;;9.30;99.90;;;;;;4977576;28;20038;-77
2024/04/03 00:52:14;;;;;;;7.43;5.18;;;9.30;99.90;;;;;;4961398;28;20065;-78
2024/04/03 00:54:41;;;;;;;6.43;4.65;;;9.30;99.90;;;;;;4977360;28;20061;-78
2024/04/03 00:57:08;;;;;;;9.30;4.70;;;9.30;99.90;;;;;;4977522;28;20112;-78
2024/04/03 00:59:34;;;;;;;9.50;4.50;;;9.30;99.90;;;;;;4977374;28;20484;-78
2024/04/03 01:02:01;;;;;;;13.20;4.30;;;9.30;99.90;;;;;;4976097;28;20242;-77
2024/04/03 01:04:27;;;;;;;10.40;4.22;;;9.30;99.90;;;;;;4977244;28;20042;-77
2024/04/03 01:06:53;;;;;;;9.52;4.32;;;9.20;99.90;;;;;;4977064;28;20057;-78
2024/04/03 01:09:19;;;;;;;8.05;4.85;;;9.20;99.90;;;;;;4977317;28;20047;-78
2024/04/03 01:11:46;;;;;;;9.38;5.10;;;9.20;99.90;;;;;;4977134;28;20555;-78
2024/04/03 01:14:13;;;;;;;13.52;5.55;;;9.20;99.90;;;;;;4977437;28;20049;-78
2024/04/03 01:16:42;;;;;;;7.47;4.75;;;9.10;99.90;;;;;;4993293;28;20118;-78
2024/04/03 01:19:08;;;;;;;6.22;3.13;;;9.10;99.90;;;;;;4993353;28;20484;-78
2024/04/03 01:21:34;;;;;;;9.98;4.32;;;9.20;99.90;;;;;;4977228;28;20480;-78
2024/04/03 01:24:00;;;;;;;15.05;4.97;;;9.00;99.90;;;;;;4960777;28;20046;-78
2024/04/03 01:26:27;;;;;;;12.85;6.68;;;9.00;99.90;;;;;;4976859;28;20145;-78
2024/04/03 01:28:53;;;;;;;8.13;3.53;;;9.00;99.90;;;;;;4976855;28;20042;-78
2024/04/03 01:31:19;;;;;;;11.70;4.90;;;9.00;99.90;;;;;;4976833;28;20050;-78
2024/04/03 01:33:45;;;;;;;7.45;3.70;;;8.90;99.90;;;;;;4960491;28;20122;-78
2024/04/03 01:36:11;;;;;;;7.85;3.60;;;8.90;99.90;;;;;;4976758;28;20046;-78
2024/04/03 01:38:37;;;;;;;14.25;5.25;;;8.90;99.90;;;;;;4976694;28;20061;-78
2024/04/03 01:41:03;;;;;;;9.00;5.28;;;8.90;99.90;;;;;;4960436;28;20046;-78
2024/04/03 01:43:30;;;;;;;10.88;4.63;;;8.90;99.90;;;;;;4976709;28;20042;-78
2024/04/03 01:46:00;;;;;;;14.63;5.53;;;8.90;99.90;;;;;;4976716;28;20526;-78
2024/04/03 01:48:26;;;;;;;16.42;4.28;;;8.90;99.90;;;;;;4977177;28;20046;-78
2024/04/03 01:50:52;;;;;;;6.07;4.07;;;8.90;99.90;;;;;;4976311;28;20050;-78
2024/04/03 01:53:19;;;;;;;9.82;4.35;;;8.80;99.90;;;;;;4995013;28;20508;-78
2024/04/03 01:55:54;;;;;;;10.40;5.95;;;8.90;99.90;;;;;;4992632;28;20050;-78
2024/04/03 01:58:21;;;;;;;18.30;5.03;;;8.90;99.90;;;;;;4991679;28;20042;-78
2024/04/03 02:00:48;;;;;;;14.25;5.03;;;8.90;99.90;;;;;;4992513;28;20408;-78
2024/04/03 02:03:14;;;;;;;5.78;3.28;;;9.00;99.90;;;;;;4976544;28;20077;-78
2024/04/03 02:05:44;;;;;;;6.82;3.72;;;9.00;99.90;;;;;;4976401;28;20085;-78
2024/04/03 02:08:14;;;;;;;11.13;4.78;;;9.00;99.90;;;;;;4960445;28;20053;-78
2024/04/03 02:10:42;;;;;;;9.02;4.30;;;9.10;99.90;;;;;;4976082;28;20411;-78
2024/04/03 02:13:08;;;;;;;10.18;5.22;;;9.10;99.90;;;;;;4992081;28;20039;-78
2024/04/03 02:15:34;;;;;;;10.63;3.20;;;9.10;99.90;;;;;;4976254;28;20428;-78
2024/04/03 02:18:00;;;;;;;15.90;4.68;;;9.10;99.90;;;;;;4976085;28;20443;-78
2024/04/03 02:20:26;;;;;;;11.45;5.22;;;9.10;99.90;;;;;;4960093;28;20061;-78
2024/04/03 02:22:52;;;;;;;11.18;3.97;;;9.20;99.90;;;;;;4959782;28;20097;-78
2024/04/03 02:25:19;;;;;;;8.38;3.78;;;9.20;99.90;;;;;;4975927;28;20054;-78
2024/04/03 02:27:45;;;;;;;9.82;4.03;;;9.20;99.90;;;;;;4975961;28;20061;-78
2024/04/03 02:30:11;;;;;;;10.68;5.72;;;9.20;99.90;;;;;;4991691;28;20231;-78
2024/04/03 02:32:38;;;;;;;12.40;4.13;;;9.20;99.90;;;;;;4975772;28;20400;-78
2024/04/03 02:35:04;;;;;;;15.23;4.25;;;9.20;99.90;;;;;;4959733;28;20396;-78
2024/04/03 02:37:31;;;;;;;8.88;3.47;;;9.20;99.90;;;;;;4958926;28;20058;-77
2024/04/03 02:39:57;;;;;;;14.23;4.15;;;9.20;99.90;;;;;;4991942;28;20183;-77
2024/04/03 02:42:24;;;;;;;9.45;4.15;;;9.20;99.90;;;;;;4991955;28;20050;-77
2024/04/03 02:44:50;;;;;;;1.20;1.02;;;9.20;99.90;;;;;;4975902;28;20092;-77
2024/04/03 02:47:16;;;;;;;11.65;3.97;;;9.20;99.90;;;;;;4975794;28;20085;-77
2024/04/03 02:49:42;;;;;;;12.48;5.25;;;9.20;99.90;;;;;;4959468;28;20562;-78
2024/04/03 02:52:08;;;;;;;14.25;4.05;;;9.20;99.90;;;;;;4943390;28;20530;-78
2024/04/03 02:54:34;;;;;;;6.03;3.50;;;9.20;99.90;;;;;;4959548;28;20046;-77
2024/04/03 02:57:00;;;;;;;12.57;4.82;;;9.20;99.90;;;;;;4943583;28;20046;-78
2024/04/03 02:59:26;;;;;;;5.18;3.30;;;9.20;99.90;;;;;;4959533;28;20045;-77
2024/04/03 03:01:52;;;;;;;11.98;4.95;;;9.20;99.90;;;;;;4947009;28;20030;-78
2024/04/03 03:04:24;;;;;;;11.05;4.95;;;9.20;99.90;;;;;;4974901;28;20045;-77
2024/04/03 03:06:50;;;;;;;10.20;4.53;;;9.20;99.90;;;;;;4991287;28;20046;-77
2024/04/03 03:09:20;;;;;;;11.50;4.72;;;9.20;99.90;;;;;;4959231;28;20050;-78
2024/04/03 03:11:46;;;;;;;11.13;4.10;;;9.20;99.90;;;;;;4991722;28;20057;-78
2024/04/03 03:14:12;;;;;;;8.93;4.13;;;9.20;99.90;;;;;;4975354;28;20034;-78
2024/04/03 03:16:38;;;;;;;7.53;4.32;;;9.20;99.90;;;;;;4975498;28;20488;-78
2024/04/03 03:19:04;;;;;;;14.20;3.53;;;9.20;99.90;;;;;;4991294;28;20492;-78
2024/04/03 03:21:30;;;;;;;12.68;4.32;;;9.20;99.90;;;;;;4991696;28;20046;-78
2024/04/03 03:23:56;;;;;;;6.25;3.80;;;9.20;99.90;;;;;;4991415;28;20062;-77
2024/04/03 03:26:22;;;;;;;7.22;3.92;;;9.20;99.90;;;;;;4975152;28;20365;-78
2024/04/03 03:28:48;;;;;;;8.75;4.22;;;9.20;99.90;;;;;;4959393;28;20108;-78
2024/04/03 03:31:14;;;;;;;5.78;4.13;;;9.30;99.90;;;;;;4991160;28;20042;-78
2024/04/03 03:33:41;;;;;;;6.90;4.30;;;9.30;99.90;;;;;;4975244;28;20078;-77
2024/04/03 03:36:07;;;;;;;5.60;2.70;;;9.30;99.90;;;;;;4959084;28;20061;-77
2024/04/03 03:38:33;;;;;;;12.60;3.53;;;9.20;99.90;;;;;;4975012;28;20062;-77
2024/04/03 03:41:03;;;;;;;8.05;3.47;;;9.20;99.90;;;;;;4959139;28;20046;-77
2024/04/03 03:43:29;;;;;;;8.52;2.22;;;9.20;99.90;;;;;;4975136;28;20050;-77
2024/04/03 03:45:55;;;;;;;7.95;3.33;;;9.20;99.90;;;;;;4991323;28;20050;-77
2024/04/03 03:54:03;;;;;;;9.65;3.00;;;9.10;99.90;;;;;;4978658;28;20094;-77
2024/04/03 03:56:29;;;;;;;10.68;3.53;;;9.10;99.90;;;;;;4978660;28;20043;-77
2024/04/03 03:58:55;;;;;;;10.38;3.38;;;9.10;99.90;;;;;;4978654;28;20081;-77
2024/04/03 04:01:21;;;;;;;7.28;3.72;;;9.10;99.90;;;;;;4994802;28;20038;-77
2024/04/03 04:03:47;;;;;;;5.47;3.47;;;9.10;99.90;;;;;;4994762;28;20046;-77
2024/04/03 04:06:13;;;;;;;10.32;3.83;;;9.10;99.90;;;;;;4994482;28;20052;-77
2024/04/03 04:08:39;;;;;;;10.35;3.80;;;9.20;99.90;;;;;;4978469;28;20050;-77
2024/04/03 04:11:05;;;;;;;8.20;3.70;;;9.30;99.90;;;;;;4946364;28;20065;-77
2024/04/03 04:13:31;;;;;;;7.53;4.75;;;9.10;99.90;;;;;;4946196;28;20046;-77
2024/04/03 04:16:01;;;;;;;10.93;4.55;;;9.10;99.90;;;;;;4946266;28;20130;-77
2024/04/03 04:18:29;;;;;;;5.85;2.28;;;9.20;99.90;;;;;;4994331;28;20046;-77
2024/04/03 04:20:58;;;;;;;12.10;4.55;;;9.20;99.90;;;;;;4978307;28;20466;-77
2024/04/03 04:23:25;;;;;;;11.43;5.25;;;9.20;99.90;;;;;;4994116;28;20046;-77
2024/04/03 04:26:02;;;;;;;3.65;2.85;;;9.30;99.90;;;;;;4962266;28;20053;-77
2024/04/03 04:28:29;;;;;;;6.38;2.22;;;9.20;99.90;;;;;;4978116;28;20050;-77
2024/04/03 04:30:59;;;;;;;9.25;4.43;;;9.50;99.90;;;;;;4994399;28;20093;-77
2024/04/03 04:33:25;;;;;;;11.98;3.90;;;9.30;99.90;;;;;;4978011;28;20038;-77
2024/04/03 04:35:53;;;;;;;10.02;4.63;;;9.30;99.90;;;;;;4994274;28;20042;-77
2024/04/03 04:38:19;;;;;;;12.70;4.95;;;9.30;99.90;;;;;;4978071;28;20047;-77
2024/04/03 04:40:54;;;;;;;8.88;5.10;;;9.40;99.90;;;;;;4962069;28;20046;-78
2024/04/03 04:43:20;;;;;;;10.05;4.80;;;9.40;99.90;;;;;;4977765;28;20117;-78
2024/04/03 04:45:46;;;;;;;12.65;5.30;;;9.40;99.90;;;;;;4977709;28;20050;-77
2024/04/03 04:48:12;;;;;;;10.20;3.33;;;9.40;99.90;;;;;;4961578;28;20052;-77
2024/04/03 04:50:38;;;;;;;12.13;5.28;;;9.40;99.90;;;;;;4977793;28;20047;-77
2024/04/03 04:53:04;;;;;;;11.35;5.40;;;9.40;99.90;;;;;;4977818;28;20070;-78
2024/04/03 04:55:30;;;;;;;12.77;5.15;;;9.40;99.90;;;;;;4961347;28;20053;-77
2024/04/03 04:57:56;;;;;;;10.88;4.70;;;9.40;99.90;;;;;;4977573;28;20042;-77
2024/04/03 05:00:22;;;;;;;10.02;5.65;;;9.40;99.90;;;;;;4944201;28;20050;-77
2024/04/03 05:02:48;;;;;;;9.43;4.47;;;9.40;99.90;;;;;;4994652;28;20053;-77
2024/04/03 05:05:14;;;;;;;5.60;2.85;;;9.40;99.90;;;;;;4960666;28;20058;-78
2024/04/03 05:07:40;;;;;;;13.02;5.30;;;9.40;99.90;;;;;;4993550;28;20046;-77
2024/04/03 05:10:06;;;;;;;13.10;7.70;;;9.30;99.90;;;;;;4993465;28;20057;-77
2024/04/03 05:12:32;;;;;;;11.32;5.43;;;9.40;99.90;;;;;;4961073;28;20407;-77
2024/04/03 05:14:58;;;;;;;18.15;9.00;;;9.40;99.90;;;;;;4961234;28;20053;-78
2024/04/03 05:17:24;;;;;;;17.67;7.57;;;9.40;99.90;;;;;;4960869;28;20061;-78
2024/04/03 05:19:50;;;;;;;18.60;9.27;;;9.40;99.90;;;;;;4961315;28;20046;-78
2024/04/03 05:22:18;;;;;;;9.35;5.10;;;9.40;99.90;;;;;;4976916;28;20034;-78
2024/04/03 05:24:44;;;;;;;20.27;8.82;;;9.40;99.90;;;;;;4977435;28;20042;-78
2024/04/03 05:27:10;;;;;;;16.77;7.97;;;9.40;99.90;;;;;;4993195;28;20050;-78
2024/04/03 05:29:36;;;;;;;11.45;7.32;;;9.40;99.90;;;;;;4976728;28;20440;-79
2024/04/03 05:32:02;;;;;;;21.25;9.77;;;9.40;99.90;;;;;;4977185;28;20097;-79
2024/04/03 05:34:29;;;;;;;22.65;9.07;;;9.40;99.90;;;;;;4960547;28;20108;-78
2024/04/03 05:36:55;;;;;;;9.55;7.90;;;9.40;99.90;;;;;;4960816;28;20046;-78
2024/04/03 05:39:21;;;;;;;12.30;7.43;;;9.40;99.90;;;;;;4960449;28;20054;-78
2024/04/03 05:41:47;;;;;;;20.65;10.35;;;9.40;99.90;;;;;;4960765;28;20480;-78
2024/04/03 05:44:13;;;;;;;10.80;6.93;;;9.40;99.90;;;;;;4976674;28;20061;-78
2024/04/03 05:46:39;;;;;;;15.80;8.10;;;9.40;99.90;;;;;;4976533;28;20534;-78
2024/04/03 05:49:06;;;;;;;24.05;12.43;;;9.50;99.90;;;;;;4945014;28;20042;-78
2024/04/03 05:51:32;;;;;;;21.38;11.88;;;9.40;99.90;;;;;;4976577;28;20042;-78
2024/04/03 05:53:59;;;;;;;25.35;12.45;;;9.40;99.90;;;;;;4992573;28;20074;-78
2024/04/03 05:56:25;;;;;;;19.90;11.23;;;9.50;99.90;;;;;;4976261;28;20496;-78
2024/04/03 05:58:54;;;;;;;23.17;11.73;;;9.50;99.90;;;;;;4976754;28;20101;-78
2024/04/03 06:01:20;;;;;;;20.65;12.63;;;9.50;99.90;;;;;;4976661;28;20070;-78
2024/04/03 06:03:46;;;;;;;16.10;9.40;;;9.50;99.90;;;;;;4962808;28;20049;-78
2024/04/03 06:06:12;;;;;;;21.08;12.98;;;9.50;99.90;;;;;;4959224;28;20038;-78
2024/04/03 06:08:39;;;;;;;13.57;7.20;;;9.60;99.90;;;;;;4995015;28;20598;-78
2024/04/03 06:11:05;;;;;;;12.52;7.78;;;9.60;99.90;;;;;;4995194;28;20415;-78
2024/04/03 06:13:31;;;;;;;22.25;10.70;;;9.60;99.90;;;;;;4962375;28;20038;-78
2024/04/03 06:15:57;;;;;;;11.60;6.50;;;9.60;99.90;;;;;;4979069;28;20038;-78
2024/04/03 06:18:23;;;;;;;21.55;11.30;;;9.60;99.90;;;;;;4947264;28;20044;-78
2024/04/03 06:20:50;;;;;;;23.50;12.15;;;9.60;99.90;;;;;;4979292;28;20429;-78
2024/04/03 06:23:16;;;;;;;14.30;8.75;;;9.60;99.90;;;;;;4963398;28;20042;-78
2024/04/03 06:25:42;;;;;;;13.23;9.02;;;9.60;99.90;;;;;;4995384;28;20107;-79
2024/04/03 06:28:08;;;;;;;18.33;11.07;;;9.60;99.90;;;;;;4979322;28;20041;-78
2024/04/03 06:30:35;;;;;;;15.98;10.30;;;9.60;99.90;;;;;;4979094;28;20069;-78
2024/04/03 06:33:01;;;;;;;13.38;6.97;;;9.70;99.90;;;;;;5011490;28;20606;-78
2024/04/03 06:35:27;;;;;;;17.17;10.15;;;9.60;99.90;;;;;;4979119;28;20046;-78
2024/04/03 06:37:53;;;;;;;14.95;7.93;;;9.70;99.90;;;;;;5011482;28;20133;-78
2024/04/03 06:40:20;;;;;;;11.75;7.03;;;9.70;99.90;;;;;;4947211;28;20547;-79
2024/04/03 06:42:46;;;;;;;16.58;10.25;;;9.70;99.90;;;;;;4978699;28;20100;-78
2024/04/03 06:45:12;;;;;;;14.27;10.45;;;9.80;99.90;;;;;;4979036;28;20046;-78
2024/04/03 06:47:38;;;;;;;16.05;9.82;;;9.80;99.90;;;;;;4994977;28;20506;-78
2024/04/03 06:50:04;;;;;;;8.55;6.30;;;9.80;99.90;;;;;;4979017;28;20070;-78
2024/04/03 06:52:30;;;;;;;11.75;7.65;;;9.80;99.90;;;;;;4962740;28;20038;-78
2024/04/03 06:54:57;;;;;;;12.98;8.80;;;9.80;99.90;;;;;;4995135;28;20125;-78
2024/04/03 06:57:23;;;;;;;8.52;7.28;;;9.90;99.90;;;;;;4962932;28;20042;-78
2024/04/03 06:59:49;;;;;;;10.82;6.65;;;9.90;99.90;;;;;;5011038;28;20562;-78
2024/04/03 07:02:15;;;;;;;13.57;8.27;;;9.90;99.90;;;;;;4962814;28;20091;-78
2024/04/03 07:04:42;;;;;;;6.30;4.78;;;9.90;99.90;;;;;;4978782;28;20038;-78
2024/04/03 07:07:08;;;;;;;11.50;7.50;;;10.00;99.90;;;;;;4962737;28;20525;-78
2024/04/03 07:09:35;;;;;;;9.55;6.25;;;10.00;99.90;;;;;;4995268;28;20189;-78
2024/04/03 07:12:04;;;;;;;13.68;8.63;;;10.00;99.90;;;;;;4978712;28;20046;-78
2024/04/03 07:14:30;;;;;;;13.40;9.73;;;10.10;99.90;;;;;;4978428;28;20046;-78
2024/04/03 07:16:56;;;;;;;9.00;7.63;;;10.10;99.90;;;;;;4978852;28;20050;-78
2024/04/03 07:19:22;;;;;;;11.20;7.93;;;10.10;99.90;;;;;;4962621;28;20510;-78
2024/04/03 07:21:48;;;;;;;6.25;5.45;;;10.20;99.90;;;;;;5010766;28;20049;-79
2024/04/03 07:24:15;;;;;;;8.68;6.88;;;10.20;99.90;;;;;;4964982;28;20499;-79
2024/04/03 07:26:41;;;;;;;7.28;4.65;;;10.20;99.90;;;;;;4982593;28;20388;-79
2024/04/03 07:29:12;;;;;;;7.50;6.63;;;10.30;99.90;;;;;;4966414;28;20057;-79
2024/04/03 07:31:38;;;;;;;12.82;6.72;;;10.30;99.90;;;;;;4982965;28;20586;-78
2024/04/03 07:34:05;;;;;;;10.57;7.40;;;10.30;99.90;;;;;;4982335;28;20515;-79
2024/04/03 07:36:31;;;;;;;9.68;6.93;;;10.30;99.90;;;;;;5014915;28;20042;-79
2024/04/03 07:38:57;;;;;;;9.65;7.10;;;10.40;99.90;;;;;;4966090;28;20049;-79
2024/04/03 07:41:33;;;;;;;7.90;6.13;;;10.40;99.90;;;;;;4998509;28;20045;-79
2024/04/03 07:43:59;;;;;;;4.50;3.85;;;10.40;99.90;;;;;;4966394;28;20495;-79
2024/04/03 07:46:27;;;;;;;8.13;6.80;;;10.50;99.90;;;;;;4982513;28;20083;-79
2024/04/03 07:48:53;;;;;;;10.27;5.72;;;10.40;99.90;;;;;;4981959;28;20077;-79
2024/04/03 07:51:19;;;;;;;8.85;5.60;;;10.40;99.90;;;;;;4982216;28;20132;-79
2024/04/03 07:53:45;;;;;;;6.13;5.53;;;10.40;99.90;;;;;;4998227;28;20033;-79
2024/04/03 07:56:13;;;;;;;8.40;6.22;;;10.50;99.90;;;;;;4982131;28;20046;-79
2024/04/03 07:58:40;;;;;;;5.93;4.68;;;10.40;99.90;;;;;;4982031;28;20495;-78
2024/04/03 08:01:07;;;;;;;6.90;5.35;;;10.40;99.90;;;;;;4998118;28;20042;-79
2024/04/03 08:03:33;;;;;;;8.48;6.45;;;10.50;99.90;;;;;;4982028;28;20046;-79
2024/04/03 08:05:59;;;;;;;5.55;5.00;;;10.50;99.90;;;;;;4981964;28;20073;-78
2024/04/03 08:08:28;;;;;;;7.07;6.03;;;10.50;99.90;;;;;;4981927;28;20053;-79
2024/04/03 08:11:04;;;;;;;8.32;5.38;;;10.60;99.90;;;;;;4982300;28;20057;-79
2024/04/03 08:13:31;;;;;;;9.10;6.47;;;10.60;99.90;;;;;;4998004;28;20084;-79
2024/04/03 08:16:05;;;;;;;8.13;5.93;;;10.60;99.90;;;;;;4949626;28;20483;-79
2024/04/03 08:18:32;;;;;;;9.32;7.75;;;10.60;99.90;;;;;;4981485;28;20104;-79
2024/04/03 08:21:10;;;;;;;8.25;5.80;;;10.60;99.90;;;;;;4965563;28;20042;-79
2024/04/03 08:23:37;;;;;;;4.38;3.90;;;10.60;99.90;;;;;;4966119;28;20414;-79
2024/04/03 08:26:10;;;;;;;7.00;5.38;;;10.60;99.90;;;;;;5013991;28;20403;-79
2024/04/03 08:28:40;;;;;;;7.53;5.55;;;10.60;99.90;;;;;;4997640;28;20359;-79
2024/04/03 08:31:16;;;;;;;5.43;3.63;;;10.60;99.90;;;;;;5013804;28;20049;-78
2024/04/03 08:33:44;;;;;;;7.88;5.70;;;10.70;99.90;;;;;;4997160;28;20053;-78
2024/04/03 08:36:10;;;;;;;6.90;6.20;;;10.80;99.90;;;;;;5012962;28;20038;-79
2024/04/03 08:38:37;;;;;;;4.97;3.75;;;10.80;99.90;;;;;;5013261;28;20057;-79
2024/04/03 08:41:05;;;;;;;5.07;4.57;;;10.80;99.90;;;;;;5013614;28;20463;-79
2024/04/03 08:43:33;;;;;;;5.22;4.68;;;10.80;99.90;;;;;;4981127;28;20111;-79
2024/04/03 08:46:01;;;;;;;7.72;5.10;;;10.90;99.90;;;;;;5013262;28;20042;-79
2024/04/03 08:48:29;;;;;;;7.55;6.80;;;11.00;99.90;;;;;;4964936;28;20517;-78
2024/04/03 08:50:56;;;;;;;7.75;5.32;;;10.90;99.90;;;;;;4981059;28;20077;-79
2024/04/03 08:53:25;;;;;;;4.82;3.85;;;10.90;99.90;;;;;;5013444;28;20399;-79
2024/04/03 08:55:53;;;;;;;3.97;3.05;;;11.00;99.90;;;;;;5012987;28;20407;-79
2024/04/03 08:58:20;;;;;;;4.97;3.17;;;11.10;99.90;;;;;;4980953;28;20042;-79
2024/04/03 09:00:47;;;;;;;6.65;6.05;;;11.20;99.90;;;;;;4980583;28;20416;-78
2024/04/03 09:03:15;;;;;;;4.85;4.45;;;11.10;99.90;;;;;;5013353;28;20172;-79
2024/04/03 09:05:41;;;;;;;4.68;3.85;;;11.10;99.90;;;;;;5013094;28;20653;-79
2024/04/03 09:08:09;;;;;;;5.03;3.88;;;11.10;99.90;;;;;;4980472;28;20518;-79
2024/04/03 09:10:49;;;;;;;5.70;3.95;;;11.20;99.90;;;;;;4996799;28;20046;-79
2024/04/03 09:13:19;;;;;;;5.95;4.50;;;11.30;99.90;;;;;;5012949;28;20056;-77
2024/04/03 09:15:45;;;;;;;6.90;5.47;;;11.20;99.90;;;;;;4980591;28;20042;-79
2024/04/03 09:18:11;;;;;;;8.95;5.85;;;11.20;99.90;;;;;;4980458;28;20484;-79
2024/04/03 09:20:41;;;;;;;6.93;4.50;;;11.20;99.90;;;;;;4980333;28;20049;-79
2024/04/03 09:23:09;;;;;;;10.68;9.57;;;11.10;99.90;;;;;;4996346;28;20073;-79
2024/04/03 09:25:38;;;;;;;3.85;3.22;;;11.20;99.90;;;;;;4996257;28;20056;-79
2024/04/03 09:28:09;;;;;;;6.38;5.45;;;11.20;99.90;;;;;;4980053;28;20050;-79
2024/04/03 09:30:38;;;;;;;;;;;11.10;99.90;;;;;;5013151;28;20060;-79
2024/04/03 09:33:05;;;;;;;7.82;6.97;;;11.20;99.90;;;;;;4979985;28;20028;-79
2024/04/03 09:35:38;;;;;;;4.22;3.80;;;10.90;99.90;;;;;;4980208;28;20049;-79
2024/04/03 09:38:04;;;;;;;7.55;5.53;;;10.90;99.90;;;;;;4979769;28;20144;-79
2024/04/03 09:40:34;;;;;;;6.15;5.32;;;10.90;99.90;;;;;;4964683;28;20464;-79
2024/04/03 09:43:05;;;;;;;12.10;8.63;;;10.90;99.90;;;;;;5012552;28;20125;-79
2024/04/03 09:45:32;;;;;;;7.28;6.30;;;11.00;99.90;;;;;;4979975;28;20132;-79
2024/04/03 09:48:01;;;;;;;9.88;9.05;;;11.00;99.90;;;;;;4979695;28;20073;-79
2024/04/03 09:50:40;;;;;;;10.70;7.95;;;10.90;99.90;;;;;;4979896;28;20057;-79
2024/04/03 09:53:12;;;;;;;9.60;7.43;;;11.00;99.90;;;;;;5012054;28;20046;-79
2024/04/03 09:55:40;;;;;;;9.48;8.07;;;11.20;99.90;;;;;;5012236;28;20042;-79
2024/04/03 09:58:11;;;;;;;13.38;12.07;;;11.30;99.90;;;;;;4979406;28;20050;-78
2024/04/03 10:00:50;;;;;;;10.75;9.68;;;11.30;99.90;;;;;;4963734;28;20053;-78
2024/04/03 10:03:21;;;;;;;9.18;8.40;;;11.30;99.90;;;;;;5012346;28;20042;-79
2024/04/03 10:05:48;;;;;;;10.40;8.27;;;11.20;99.90;;;;;;4995629;28;20065;-78
2024/04/03 10:08:17;;;;;;;14.95;10.00;;;11.30;99.90;;;;;;5011927;28;20046;-78
2024/04/03 10:10:46;;;;;;;12.98;11.73;;;11.30;99.90;;;;;;5011801;28;20037;-77
2024/04/03 10:13:22;;;;;;;5.38;4.90;;;11.40;99.90;;;;;;5011750;28;20042;-77
2024/04/03 10:16:05;;;;;;;8.68;7.75;;;11.20;99.90;;;;;;5012139;28;20030;-78
2024/04/03 10:18:39;;;;;;;10.05;9.15;;;11.20;99.90;;;;;;4995488;28;20046;-78
2024/04/03 10:21:10;;;;;;;10.30;9.23;;;11.20;99.90;;;;;;4995620;28;20069;-78
2024/04/03 10:23:55;;;;;;;8.02;7.25;;;11.20;99.90;;;;;;5011867;28;20042;-78
2024/04/03 10:26:22;;;;;;;7.03;6.20;;;11.20;99.90;;;;;;5011929;28;20426;-78
2024/04/03 10:28:48;;;;;;;10.52;8.35;;;11.10;99.90;;;;;;5011938;28;20502;-78
2024/04/03 10:31:18;;;;;;;7.13;6.43;;;11.10;99.90;;;;;;5011568;28;20050;-79
2024/04/03 10:33:48;;;;;;;8.80;5.03;;;11.10;99.90;;;;;;4995352;28;20038;-78
2024/04/03 10:36:18;;;;;;;7.68;3.97;;;11.10;99.90;;;;;;5011492;28;20033;-78
2024/04/03 10:38:44;;;;;;;9.82;8.85;;;11.10;99.90;;;;;;5011486;28;20403;-79
2024/04/03 10:41:11;;;;;;;10.85;8.43;;;11.10;99.90;;;;;;5011400;28;20045;-78
2024/04/03 10:43:37;;;;;;;8.48;7.22;;;11.00;99.90;;;;;;4995399;28;20045;-78
2024/04/03 10:46:05;;;;;;;11.63;9.25;;;11.10;99.90;;;;;;4995058;28;20510;-78
2024/04/03 10:48:31;;;;;;;12.40;9.95;;;11.00;99.90;;;;;;5011716;28;20042;-78
2024/04/03 10:50:57;;;;;;;9.55;8.05;;;11.10;99.90;;;;;;4995192;28;20050;-78
2024/04/03 10:53:24;;;;;;;10.27;8.32;;;11.00;99.90;;;;;;4962854;28;20096;-78
2024/04/03 10:55:50;;;;;;;7.90;6.28;;;11.00;99.90;;;;;;4995009;28;20046;-78
2024/04/03 10:58:16;;;;;;;8.90;7.10;;;11.10;99.90;;;;;;5010796;28;20057;-78
2024/04/03 11:00:45;;;;;;;11.15;10.05;;;11.00;99.90;;;;;;4994966;28;20042;-78
2024/04/03 11:03:14;;;;;;;11.52;8.43;;;11.10;99.90;;;;;;5011219;28;20084;-79
2024/04/03 11:05:40;;;;;;;8.10;7.03;;;11.10;99.90;;;;;;5011442;28;20045;-78
2024/04/03 11:08:10;;;;;;;10.20;8.27;;;11.10;99.90;;;;;;4978774;28;20054;-78
2024/04/03 11:10:37;;;;;;;10.25;6.75;;;11.20;99.90;;;;;;4979356;28;20052;-78
2024/04/03 11:13:11;;;;;;;7.07;6.38;;;11.20;99.90;;;;;;5011090;28;20050;-78
2024/04/03 11:15:38;;;;;;;8.85;7.03;;;11.20;99.90;;;;;;4994982;28;20053;-78
2024/04/03 11:18:07;;;;;;;5.53;5.03;;;11.20;99.90;;;;;;5011134;28;20100;-78
2024/04/03 11:20:34;;;;;;;9.25;6.82;;;11.20;99.90;;;;;;5011324;28;20042;-78
2024/04/03 11:23:01;;;;;;;6.70;6.03;;;11.20;99.90;;;;;;5011263;28;20046;-78
2024/04/03 11:25:29;;;;;;;6.85;6.10;;;11.20;99.90;;;;;;5011178;28;20046;-77
2024/04/03 11:27:56;;;;;;;9.40;5.07;;;11.20;99.90;;;;;;4978545;28;20046;-77
2024/04/03 11:30:24;;;;;;;6.55;5.60;;;11.30;99.90;;;;;;5011038;28;20068;-78
2024/04/03 11:32:50;;;;;;;6.13;5.57;;;11.50;99.90;;;;;;5011264;28;20058;-78
2024/04/03 11:35:16;;;;;;;4.45;4.03;;;11.60;99.90;;;;;;4978561;28;20046;-77
2024/04/03 11:37:42;;;;;;;5.75;5.25;;;11.70;99.90;;;;;;5010995;28;20038;-78
2024/04/03 11:40:08;;;;;;;5.53;5.03;;;11.80;99.90;;;;;;5010890;28;20447;-77
2024/04/03 11:42:35;;;;;;;8.05;5.25;;;11.90;99.90;;;;;;4994718;28;20042;-77
2024/04/03 11:45:04;;;;;;;5.22;4.60;;;12.00;99.90;;;;;;5011132;28;20042;-77
2024/04/03 11:47:31;;;;;;;5.40;3.85;;;12.00;99.90;;;;;;5011067;28;20380;-78
2024/04/03 11:49:59;;;;;;;6.60;4.38;;;12.00;99.90;;;;;;4978753;28;20069;-77
2024/04/03 11:52:25;;;;;;;6.72;6.10;;;12.00;99.90;;;;;;5010718;28;20380;-77
2024/04/03 11:54:51;;;;;;;6.13;5.63;;;12.20;99.90;;;;;;5010796;28;20045;-77
2024/04/03 11:57:17;;;;;;;4.95;3.95;;;12.40;99.90;;;;;;5010686;28;20442;-77
2024/04/03 11:59:43;;;;;;;5.65;3.58;;;12.60;99.90;;;;;;5011113;28;20436;-77
2024/04/03 12:02:09;;;;;;;4.50;4.03;;;12.70;99.90;;;;;;4994197;28;20053;-77
2024/04/03 12:04:35;;;;;;;5.25;3.92;;;12.70;99.90;;;;;;4978863;28;20372;-78
2024/04/03 12:07:01;;;;;;;6.50;5.35;;;12.80;99.90;;;;;;5010750;28;20103;-77
2024/04/03 12:09:27;;;;;;;5.82;4.85;;;12.80;99.90;;;;;;4994346;28;20513;-78
2024/04/03 12:11:53;;;;;;;6.30;5.80;;;12.80;99.90;;;;;;5013698;28;20483;-77
2024/04/03 12:14:19;;;;;;;4.97;4.07;;;12.70;99.90;;;;;;5013930;28;20053;-77
2024/04/03 12:16:52;;;;;;;6.85;6.10;;;12.60;99.90;;;;;;5014300;28;20036;-77
2024/04/03 12:19:29;;;;;;;4.43;4.13;;;12.50;99.90;;;;;;4998835;28;20411;-78
2024/04/03 12:21:55;;;;;;;3.75;2.83;;;12.20;99.90;;;;;;5014216;28;20093;-78
2024/04/03 12:24:22;;;;;;;5.15;3.45;;;12.00;99.90;;;;;;4981362;28;20045;-78
2024/04/03 12:26:48;;;;;;;5.10;3.92;;;11.90;99.90;;;;;;5014077;28;20056;-78
2024/04/03 12:29:16;;;;;;;4.57;4.18;;;12.00;99.90;;;;;;5013855;28;20136;-78
2024/04/03 12:31:51;;;;;;;7.82;3.45;;;12.10;99.90;;;;;;5013892;28;20541;-78
2024/04/03 12:34:18;;;;;;;4.13;3.72;;;12.20;99.90;;;;;;5013609;28;20514;-78
2024/04/03 12:36:44;;;;;;;3.97;3.03;;;12.20;99.90;;;;;;5013791;28;20042;-78
2024/04/03 12:39:10;;;;;;;3.70;3.05;;;12.20;99.90;;;;;;5013740;28;20108;-78
2024/04/03 12:41:36;;;;;;;3.03;2.72;;;12.10;99.90;;;;;;4997355;28;20048;-78
2024/04/03 12:44:02;;;;;;;4.50;2.40;;;12.10;99.90;;;;;;5013675;28;20049;-78
2024/04/03 12:46:28;;;;;;;3.55;3.22;;;12.00;99.90;;;;;;4980895;28;20050;-78
2024/04/03 12:48:55;;;;;;;5.53;3.20;;;12.00;99.90;;;;;;4981128;28;20038;-78
2024/04/03 12:51:21;;;;;;;3.88;3.47;;;12.20;99.90;;;;;;4980660;28;20046;-78
2024/04/03 12:53:50;;;;;;;5.80;2.83;;;12.40;99.90;;;;;;5013555;28;20045;-78